sensor_id;sensor_type;location;lat;lon;timestamp;temperature;humidity
21197;DHT22;10756;51.014;3.786;2022-07-06T00:02:15;14.10;99.90
21197;DHT22;10756;51.014;3.786;2022-07-06T00:04:40;13.90;99.90
21197;DHT22;10756;51.014;3.786;2022-07-06T00:07:06;13.70;99.90
21197;DHT22;10756;51.014;3.786;2022-07-06T00:09:33;13.70;99.90
21197;DHT22;10756;51.014;3.786;2022-07-06T00:11:59;13.60;99.90
21197;DHT22;10756;51.014;3.786;2022-07-06T00:14:24;13.60;99.90
21197;DHT22;10756;51.014;3.786;2022-07-06T00:16:50;13.50;99.90
21197;DHT22;10756;51.014;3.786;2022-07-06T00:19:15;13.50;99.90
21197;DHT22;10756;51.014;3.786;2022-07-06T00:21:41;13.40;99.90
21197;DHT22;10756;51.014;3.786;2022-07-06T00:24:07;13.50;99.90
21197;DHT22;10756;51.014;3.786;2022-07-06T00:26:33;13.50;99.90
21197;DHT22;10756;51.014;3.786;2022-07-06T00:28:58;13.50;99.90
21197;DHT22;10756;51.014;3.786;2022-07-06T00:31:24;13.60;99.90
21197;DHT22;10756;51.014;3.786;2022-07-06T00:33:50;13.50;99.90
21197;DHT22;10756;51.014;3.786;2022-07-06T00:36:15;13.80;99.90
21197;DHT22;10756;51.014;3.786;2022-07-06T00:38:41;14.10;99.90
21197;DHT22;10756;51.014;3.786;2022-07-06T00:41:07;14.30;99.90
21197;DHT22;10756;51.014;3.786;2022-07-06T00:46:30;13.70;99.90
21197;DHT22;10756;51.014;3.786;2022-07-06T00:48:56;13.70;99.90
21197;DHT22;10756;51.014;3.786;2022-07-06T00:51:25;13.60;99.90
21197;DHT22;10756;51.014;3.786;2022-07-06T00:53:55;13.60;99.90
21197;DHT22;10756;51.014;3.786;2022-07-06T00:56:21;13.70;99.90
21197;DHT22;10756;51.014;3.786;2022-07-06T00:58:47;13.70;99.90
21197;DHT22;10756;51.014;3.786;2022-07-06T01:01:13;13.80;99.90
21197;DHT22;10756;51.014;3.786;2022-07-06T01:03:38;13.80;99.90
21197;DHT22;10756;51.014;3.786;2022-07-06T01:06:04;13.70;99.90
21197;DHT22;10756;51.014;3.786;2022-07-06T01:08:30;13.80;99.90
21197;DHT22;10756;51.014;3.786;2022-07-06T01:10:55;13.70;99.90
21197;DHT22;10756;51.014;3.786;2022-07-06T01:13:21;13.80;99.90
21197;DHT22;10756;51.014;3.786;2022-07-06T01:15:47;13.90;99.90
21197;DHT22;10756;51.014;3.786;2022-07-06T01:18:12;14.20;99.90
21197;DHT22;10756;51.014;3.786;2022-07-06T01:20:39;14.40;99.90
21197;DHT22;10756;51.014;3.786;2022-07-06T01:23:05;14.60;99.90
21197;DHT22;10756;51.014;3.786;2022-07-06T01:25:30;14.90;99.90
21197;DHT22;10756;51.014;3.786;2022-07-06T01:27:56;15.10;99.90
21197;DHT22;10756;51.014;3.786;2022-07-06T01:30:22;15.10;99.90
21197;DHT22;10756;51.014;3.786;2022-07-06T01:32:48;14.70;99.90
21197;DHT22;10756;51.014;3.786;2022-07-06T01:35:14;14.50;99.90
21197;DHT22;10756;51.014;3.786;2022-07-06T01:37:41;14.40;99.90
21197;DHT22;10756;51.014;3.786;2022-07-06T01:40:09;14.20;99.90
21197;DHT22;10756;51.014;3.786;2022-07-06T01:42:35;14.20;99.90
21197;DHT22;10756;51.014;3.786;2022-07-06T01:45:01;14.30;99.90
21197;DHT22;10756;51.014;3.786;2022-07-06T01:47:27;14.30;99.90
21197;DHT22;10756;51.014;3.786;2022-07-06T01:49:58;14.20;99.90
21197;DHT22;10756;51.014;3.786;2022-07-06T01:52:25;14.00;99.90
21197;DHT22;10756;51.014;3.786;2022-07-06T01:54:51;13.80;99.90
21197;DHT22;10756;51.014;3.786;2022-07-06T01:57:17;14.00;99.90
21197;DHT22;10756;51.014;3.786;2022-07-06T01:59:42;14.10;99.90
21197;DHT22;10756;51.014;3.786;2022-07-06T02:02:08;14.10;99.90
21197;DHT22;10756;51.014;3.786;2022-07-06T02:04:33;13.90;99.90
21197;DHT22;10756;51.014;3.786;2022-07-06T02:06:59;13.80;99.90
21197;DHT22;10756;51.014;3.786;2022-07-06T02:09:25;13.60;99.90
21197;DHT22;10756;51.014;3.786;2022-07-06T02:11:50;13.60;99.90
21197;DHT22;10756;51.014;3.786;2022-07-06T02:14:16;13.60;99.90
21197;DHT22;10756;51.014;3.786;2022-07-06T02:16:41;13.60;99.90
21197;DHT22;10756;51.014;3.786;2022-07-06T02:19:07;13.60;99.90
21197;DHT22;10756;51.014;3.786;2022-07-06T02:21:33;13.50;99.90
21197;DHT22;10756;51.014;3.786;2022-07-06T02:23:58;13.50;99.90
21197;DHT22;10756;51.014;3.786;2022-07-06T02:26:24;13.40;99.90
21197;DHT22;10756;51.014;3.786;2022-07-06T02:28:49;13.40;99.90
21197;DHT22;10756;51.014;3.786;2022-07-06T02:31:15;13.40;99.90
21197;DHT22;10756;51.014;3.786;2022-07-06T02:33:41;13.30;99.90
21197;DHT22;10756;51.014;3.786;2022-07-06T02:36:07;13.30;99.90
21197;DHT22;10756;51.014;3.786;2022-07-06T02:38:33;13.30;99.90
21197;DHT22;10756;51.014;3.786;2022-07-06T02:40:58;13.30;99.90
21197;DHT22;10756;51.014;3.786;2022-07-06T02:43:24;13.30;99.90
21197;DHT22;10756;51.014;3.786;2022-07-06T02:45:50;13.30;99.90
21197;DHT22;10756;51.014;3.786;2022-07-06T02:48:15;13.30;99.90
21197;DHT22;10756;51.014;3.786;2022-07-06T02:50:41;13.30;99.90
21197;DHT22;10756;51.014;3.786;2022-07-06T02:53:07;13.20;99.90
21197;DHT22;10756;51.014;3.786;2022-07-06T02:55:32;13.20;99.90
21197;DHT22;10756;51.014;3.786;2022-07-06T02:57:58;13.20;99.90
21197;DHT22;10756;51.014;3.786;2022-07-06T03:00:24;13.10;99.90
21197;DHT22;10756;51.014;3.786;2022-07-06T03:02:49;13.00;99.90
21197;DHT22;10756;51.014;3.786;2022-07-06T03:05:15;13.10;99.90
21197;DHT22;10756;51.014;3.786;2022-07-06T03:07:40;13.00;99.90
21197;DHT22;10756;51.014;3.786;2022-07-06T03:10:06;13.00;99.90
21197;DHT22;10756;51.014;3.786;2022-07-06T03:12:32;13.20;99.90
21197;DHT22;10756;51.014;3.786;2022-07-06T03:14:58;13.20;99.90
21197;DHT22;10756;51.014;3.786;2022-07-06T03:17:23;13.20;99.90
21197;DHT22;10756;51.014;3.786;2022-07-06T03:19:49;13.10;99.90
21197;DHT22;10756;51.014;3.786;2022-07-06T03:22:15;13.00;99.90
21197;DHT22;10756;51.014;3.786;2022-07-06T03:24:40;13.00;99.90
21197;DHT22;10756;51.014;3.786;2022-07-06T03:27:06;13.00;99.90
21197;DHT22;10756;51.014;3.786;2022-07-06T03:29:32;12.90;99.90
21197;DHT22;10756;51.014;3.786;2022-07-06T03:31:57;12.80;99.90
21197;DHT22;10756;51.014;3.786;2022-07-06T03:34:23;12.80;99.90
21197;DHT22;10756;51.014;3.786;2022-07-06T03:36:48;12.80;99.90
21197;DHT22;10756;51.014;3.786;2022-07-06T03:39:14;12.80;99.90
21197;DHT22;10756;51.014;3.786;2022-07-06T03:41:40;12.70;99.90
21197;DHT22;10756;51.014;3.786;2022-07-06T03:44:05;12.60;99.90
21197;DHT22;10756;51.014;3.786;2022-07-06T03:46:31;12.70;99.90
21197;DHT22;10756;51.014;3.786;2022-07-06T03:48:56;12.70;99.90
21197;DHT22;10756;51.014;3.786;2022-07-06T03:51:22;12.70;99.90
21197;DHT22;10756;51.014;3.786;2022-07-06T03:53:48;12.70;99.90
21197;DHT22;10756;51.014;3.786;2022-07-06T03:56:14;12.70;99.90
21197;DHT22;10756;51.014;3.786;2022-07-06T03:58:51;12.70;99.90
21197;DHT22;10756;51.014;3.786;2022-07-06T04:01:16;12.70;99.90
21197;DHT22;10756;51.014;3.786;2022-07-06T04:03:42;12.70;99.90
21197;DHT22;10756;51.014;3.786;2022-07-06T04:06:07;12.70;99.90
21197;DHT22;10756;51.014;3.786;2022-07-06T04:08:33;12.70;99.90
21197;DHT22;10756;51.014;3.786;2022-07-06T04:10:59;12.70;99.90
21197;DHT22;10756;51.014;3.786;2022-07-06T04:13:24;12.70;99.90
21197;DHT22;10756;51.014;3.786;2022-07-06T04:15:53;12.90;99.90
21197;DHT22;10756;51.014;3.786;2022-07-06T04:18:18;12.90;99.90
21197;DHT22;10756;51.014;3.786;2022-07-06T04:20:44;13.10;99.90
21197;DHT22;10756;51.014;3.786;2022-07-06T04:23:09;13.10;99.90
21197;DHT22;10756;51.014;3.786;2022-07-06T04:25:35;13.30;99.90
21197;DHT22;10756;51.014;3.786;2022-07-06T04:28:01;13.30;99.90
21197;DHT22;10756;51.014;3.786;2022-07-06T04:30:26;13.40;99.90
21197;DHT22;10756;51.014;3.786;2022-07-06T04:32:52;13.40;99.90
21197;DHT22;10756;51.014;3.786;2022-07-06T04:35:18;13.30;99.90
21197;DHT22;10756;51.014;3.786;2022-07-06T04:37:44;13.30;99.90
21197;DHT22;10756;51.014;3.786;2022-07-06T04:40:11;13.20;99.90
21197;DHT22;10756;51.014;3.786;2022-07-06T04:42:37;13.20;99.90
21197;DHT22;10756;51.014;3.786;2022-07-06T04:45:04;13.30;99.90
21197;DHT22;10756;51.014;3.786;2022-07-06T04:47:30;13.30;99.90
21197;DHT22;10756;51.014;3.786;2022-07-06T04:49:55;13.40;99.90
21197;DHT22;10756;51.014;3.786;2022-07-06T04:52:21;13.30;99.90
21197;DHT22;10756;51.014;3.786;2022-07-06T04:54:46;13.30;99.90
21197;DHT22;10756;51.014;3.786;2022-07-06T04:57:12;13.40;99.90
21197;DHT22;10756;51.014;3.786;2022-07-06T04:59:38;13.50;99.90
21197;DHT22;10756;51.014;3.786;2022-07-06T05:02:03;13.70;99.90
21197;DHT22;10756;51.014;3.786;2022-07-06T05:04:29;13.80;99.90
21197;DHT22;10756;51.014;3.786;2022-07-06T05:06:55;13.80;99.90
21197;DHT22;10756;51.014;3.786;2022-07-06T05:09:20;14.00;99.90
21197;DHT22;10756;51.014;3.786;2022-07-06T05:11:46;14.20;99.90
21197;DHT22;10756;51.014;3.786;2022-07-06T05:14:11;14.30;99.90
21197;DHT22;10756;51.014;3.786;2022-07-06T05:16:37;14.30;99.90
21197;DHT22;10756;51.014;3.786;2022-07-06T05:19:03;14.20;99.90
21197;DHT22;10756;51.014;3.786;2022-07-06T05:21:28;14.30;99.90
21197;DHT22;10756;51.014;3.786;2022-07-06T05:23:54;14.40;99.90
21197;DHT22;10756;51.014;3.786;2022-07-06T05:26:20;14.20;99.90
21197;DHT22;10756;51.014;3.786;2022-07-06T05:28:45;14.10;99.90
21197;DHT22;10756;51.014;3.786;2022-07-06T05:31:11;14.20;99.90
21197;DHT22;10756;51.014;3.786;2022-07-06T05:33:37;14.50;99.90
21197;DHT22;10756;51.014;3.786;2022-07-06T05:36:03;15.10;99.90
21197;DHT22;10756;51.014;3.786;2022-07-06T05:38:29;15.60;99.90
21197;DHT22;10756;51.014;3.786;2022-07-06T05:41:06;15.70;99.90
21197;DHT22;10756;51.014;3.786;2022-07-06T05:43:32;15.90;99.90
21197;DHT22;10756;51.014;3.786;2022-07-06T05:46:01;16.10;99.90
21197;DHT22;10756;51.014;3.786;2022-07-06T05:48:27;16.10;99.90
21197;DHT22;10756;51.014;3.786;2022-07-06T05:51:03;16.20;99.90
21197;DHT22;10756;51.014;3.786;2022-07-06T05:53:29;16.30;99.90
21197;DHT22;10756;51.014;3.786;2022-07-06T05:55:55;16.30;99.90
21197;DHT22;10756;51.014;3.786;2022-07-06T05:58:21;16.40;99.90
21197;DHT22;10756;51.014;3.786;2022-07-06T06:00:47;16.50;99.90
21197;DHT22;10756;51.014;3.786;2022-07-06T06:03:22;16.70;99.90
21197;DHT22;10756;51.014;3.786;2022-07-06T06:05:51;16.70;99.90
21197;DHT22;10756;51.014;3.786;2022-07-06T06:08:20;16.90;99.90
21197;DHT22;10756;51.014;3.786;2022-07-06T06:10:46;16.80;99.90
21197;DHT22;10756;51.014;3.786;2022-07-06T06:13:11;16.70;99.90
21197;DHT22;10756;51.014;3.786;2022-07-06T06:15:37;16.60;99.90
21197;DHT22;10756;51.014;3.786;2022-07-06T06:18:09;16.50;99.90
21197;DHT22;10756;51.014;3.786;2022-07-06T06:20:52;16.60;99.90
21197;DHT22;10756;51.014;3.786;2022-07-06T06:23:19;17.10;99.90
21197;DHT22;10756;51.014;3.786;2022-07-06T06:25:45;17.20;99.90
21197;DHT22;10756;51.014;3.786;2022-07-06T06:28:11;17.50;99.90
21197;DHT22;10756;51.014;3.786;2022-07-06T06:30:42;17.10;99.90
21197;DHT22;10756;51.014;3.786;2022-07-06T06:33:33;17.30;99.90
21197;DHT22;10756;51.014;3.786;2022-07-06T06:53:53;17.70;99.90
21197;DHT22;10756;51.014;3.786;2022-07-06T06:56:14;17.80;99.90
21197;DHT22;10756;51.014;3.786;2022-07-06T06:58:48;17.90;99.90
21197;DHT22;10756;51.014;3.786;2022-07-06T07:11:44;18.00;99.90
21197;DHT22;10756;51.014;3.786;2022-07-06T07:14:21;17.80;99.90
21197;DHT22;10756;51.014;3.786;2022-07-06T07:17:08;17.90;99.90
21197;DHT22;10756;51.014;3.786;2022-07-06T07:25:39;18.80;99.90
21197;DHT22;10756;51.014;3.786;2022-07-06T07:28:08;19.00;99.90
21197;DHT22;10756;51.014;3.786;2022-07-06T07:30:34;19.10;99.90
21197;DHT22;10756;51.014;3.786;2022-07-06T07:33:00;19.10;99.90
21197;DHT22;10756;51.014;3.786;2022-07-06T07:35:27;18.70;99.90
21197;DHT22;10756;51.014;3.786;2022-07-06T07:37:53;18.70;99.90
21197;DHT22;10756;51.014;3.786;2022-07-06T07:40:18;18.80;99.90
21197;DHT22;10756;51.014;3.786;2022-07-06T07:42:50;18.90;99.90
21197;DHT22;10756;51.014;3.786;2022-07-06T07:45:16;18.90;99.90
21197;DHT22;10756;51.014;3.786;2022-07-06T07:47:42;18.70;99.90
21197;DHT22;10756;51.014;3.786;2022-07-06T07:50:11;19.10;99.90
21197;DHT22;10756;51.014;3.786;2022-07-06T07:52:52;19.40;99.90
21197;DHT22;10756;51.014;3.786;2022-07-06T07:55:21;19.20;99.90
21197;DHT22;10756;51.014;3.786;2022-07-06T07:58:06;19.20;99.90
21197;DHT22;10756;51.014;3.786;2022-07-06T08:00:32;19.00;99.90
21197;DHT22;10756;51.014;3.786;2022-07-06T08:03:01;19.10;99.90
21197;DHT22;10756;51.014;3.786;2022-07-06T08:05:26;19.20;99.90
21197;DHT22;10756;51.014;3.786;2022-07-06T08:07:55;19.20;99.90
21197;DHT22;10756;51.014;3.786;2022-07-06T08:10:40;19.20;99.90
21197;DHT22;10756;51.014;3.786;2022-07-06T08:13:10;19.10;99.90
21197;DHT22;10756;51.014;3.786;2022-07-06T08:15:39;19.20;99.90
21197;DHT22;10756;51.014;3.786;2022-07-06T08:18:28;19.00;99.90
21197;DHT22;10756;51.014;3.786;2022-07-06T08:27:20;20.00;99.90
21197;DHT22;10756;51.014;3.786;2022-07-06T08:29:52;20.20;99.90
21197;DHT22;10756;51.014;3.786;2022-07-06T08:32:21;19.90;99.90
21197;DHT22;10756;51.014;3.786;2022-07-06T08:34:47;20.00;99.90
21197;DHT22;10756;51.014;3.786;2022-07-06T08:37:13;20.20;99.90
21197;DHT22;10756;51.014;3.786;2022-07-06T08:39:38;20.60;99.90
21197;DHT22;10756;51.014;3.786;2022-07-06T08:42:06;21.00;99.90
21197;DHT22;10756;51.014;3.786;2022-07-06T08:47:58;21.70;99.90
21197;DHT22;10756;51.014;3.786;2022-07-06T08:50:26;22.20;99.90
21197;DHT22;10756;51.014;3.786;2022-07-06T08:52:52;22.20;99.90
21197;DHT22;10756;51.014;3.786;2022-07-06T08:55:29;22.20;99.90
21197;DHT22;10756;51.014;3.786;2022-07-06T08:58:13;22.40;99.90
21197;DHT22;10756;51.014;3.786;2022-07-06T09:00:51;22.40;99.90
21197;DHT22;10756;51.014;3.786;2022-07-06T09:03:44;22.40;99.90
21197;DHT22;10756;51.014;3.786;2022-07-06T09:16:48;22.70;99.90
21197;DHT22;10756;51.014;3.786;2022-07-06T09:20:41;22.80;99.90
21197;DHT22;10756;51.014;3.786;2022-07-06T09:23:47;22.90;99.90
21197;DHT22;10756;51.014;3.786;2022-07-06T09:33:06;23.50;99.90
21197;DHT22;10756;51.014;3.786;2022-07-06T09:39:43;23.10;99.90
21197;DHT22;10756;51.014;3.786;2022-07-06T09:56:10;23.90;99.90
21197;DHT22;10756;51.014;3.786;2022-07-06T09:58:41;24.00;99.90
21197;DHT22;10756;51.014;3.786;2022-07-06T10:01:28;23.60;99.90
21197;DHT22;10756;51.014;3.786;2022-07-06T10:07:23;23.00;99.90
21197;DHT22;10756;51.014;3.786;2022-07-06T10:09:50;23.70;99.90
21197;DHT22;10756;51.014;3.786;2022-07-06T10:12:17;24.10;99.90
21197;DHT22;10756;51.014;3.786;2022-07-06T10:15:30;24.20;99.90
21197;DHT22;10756;51.014;3.786;2022-07-06T10:18:05;24.60;99.90
21197;DHT22;10756;51.014;3.786;2022-07-06T10:20:34;24.80;99.90
21197;DHT22;10756;51.014;3.786;2022-07-06T10:23:24;25.00;99.90
21197;DHT22;10756;51.014;3.786;2022-07-06T10:26:35;24.90;99.90
21197;DHT22;10756;51.014;3.786;2022-07-06T10:29:05;24.40;99.90
21197;DHT22;10756;51.014;3.786;2022-07-06T10:31:37;24.40;99.90
21197;DHT22;10756;51.014;3.786;2022-07-06T10:34:06;24.60;99.90
21197;DHT22;10756;51.014;3.786;2022-07-06T10:36:38;24.90;99.90
21197;DHT22;10756;51.014;3.786;2022-07-06T10:39:08;24.90;99.90
21197;DHT22;10756;51.014;3.786;2022-07-06T10:41:44;25.10;99.90
21197;DHT22;10756;51.014;3.786;2022-07-06T10:44:36;24.90;99.90
21197;DHT22;10756;51.014;3.786;2022-07-06T10:47:10;24.80;99.90
21197;DHT22;10756;51.014;3.786;2022-07-06T10:49:48;25.20;99.90
21197;DHT22;10756;51.014;3.786;2022-07-06T10:52:19;25.00;99.90
21197;DHT22;10756;51.014;3.786;2022-07-06T10:57:58;25.40;99.90
21197;DHT22;10756;51.014;3.786;2022-07-06T11:00:25;25.10;99.90
21197;DHT22;10756;51.014;3.786;2022-07-06T11:02:51;24.90;99.90
21197;DHT22;10756;51.014;3.786;2022-07-06T11:08:05;24.20;99.90
21197;DHT22;10756;51.014;3.786;2022-07-06T11:10:50;24.40;99.90
21197;DHT22;10756;51.014;3.786;2022-07-06T11:13:27;24.30;99.90
21197;DHT22;10756;51.014;3.786;2022-07-06T11:16:02;23.60;99.90
21197;DHT22;10756;51.014;3.786;2022-07-06T11:18:50;23.20;99.90
21197;DHT22;10756;51.014;3.786;2022-07-06T11:27:13;23.20;99.90
21197;DHT22;10756;51.014;3.786;2022-07-06T11:29:44;23.60;99.90
21197;DHT22;10756;51.014;3.786;2022-07-06T11:32:24;24.10;99.90
21197;DHT22;10756;51.014;3.786;2022-07-06T11:37:59;25.80;99.90
21197;DHT22;10756;51.014;3.786;2022-07-06T11:40:25;26.80;99.90
21197;DHT22;10756;51.014;3.786;2022-07-06T11:42:54;27.40;99.90
21197;DHT22;10756;51.014;3.786;2022-07-06T11:45:27;28.40;99.90
21197;DHT22;10756;51.014;3.786;2022-07-06T11:48:09;28.00;99.90
21197;DHT22;10756;51.014;3.786;2022-07-06T11:50:35;29.20;99.90
21197;DHT22;10756;51.014;3.786;2022-07-06T11:53:01;30.10;99.90
21197;DHT22;10756;51.014;3.786;2022-07-06T11:55:28;31.90;99.90
21197;DHT22;10756;51.014;3.786;2022-07-06T11:57:55;32.60;97.90
21197;DHT22;10756;51.014;3.786;2022-07-06T12:00:22;31.70;95.80
21197;DHT22;10756;51.014;3.786;2022-07-06T12:02:59;30.60;97.10
21197;DHT22;10756;51.014;3.786;2022-07-06T12:05:31;29.70;97.30
21197;DHT22;10756;51.014;3.786;2022-07-06T12:08:05;30.30;97.70
21197;DHT22;10756;51.014;3.786;2022-07-06T12:10:34;29.80;97.30
21197;DHT22;10756;51.014;3.786;2022-07-06T12:13:04;30.70;97.00
21197;DHT22;10756;51.014;3.786;2022-07-06T12:15:30;31.40;95.40
21197;DHT22;10756;51.014;3.786;2022-07-06T12:17:55;31.10;94.50
21197;DHT22;10756;51.014;3.786;2022-07-06T12:20:30;32.60;93.20
21197;DHT22;10756;51.014;3.786;2022-07-06T12:23:07;33.70;90.40
21197;DHT22;10756;51.014;3.786;2022-07-06T12:25:36;32.20;90.40
21197;DHT22;10756;51.014;3.786;2022-07-06T12:28:03;31.40;91.20
21197;DHT22;10756;51.014;3.786;2022-07-06T12:30:29;31.80;91.90
21197;DHT22;10756;51.014;3.786;2022-07-06T12:33:13;33.40;89.10
21197;DHT22;10756;51.014;3.786;2022-07-06T12:35:44;33.60;85.70
21197;DHT22;10756;51.014;3.786;2022-07-06T12:41:04;34.80;80.90
21197;DHT22;10756;51.014;3.786;2022-07-06T12:43:40;34.60;77.50
21197;DHT22;10756;51.014;3.786;2022-07-06T12:48:56;35.10;77.10
21197;DHT22;10756;51.014;3.786;2022-07-06T12:51:25;34.40;73.50
21197;DHT22;10756;51.014;3.786;2022-07-06T13:02:33;36.10;69.60
21197;DHT22;10756;51.014;3.786;2022-07-06T13:05:07;37.40;65.50
21197;DHT22;10756;51.014;3.786;2022-07-06T13:08:08;37.40;65.00
21197;DHT22;10756;51.014;3.786;2022-07-06T13:11:21;36.30;64.30
21197;DHT22;10756;51.014;3.786;2022-07-06T13:13:50;35.10;65.80
21197;DHT22;10756;51.014;3.786;2022-07-06T13:16:18;35.30;65.30
21197;DHT22;10756;51.014;3.786;2022-07-06T13:18:44;35.10;64.60
21197;DHT22;10756;51.014;3.786;2022-07-06T13:24:35;32.00;68.50
21197;DHT22;10756;51.014;3.786;2022-07-06T13:27:19;30.40;72.30
21197;DHT22;10756;51.014;3.786;2022-07-06T13:30:09;31.00;72.10
21197;DHT22;10756;51.014;3.786;2022-07-06T13:33:13;30.20;74.40
21197;DHT22;10756;51.014;3.786;2022-07-06T13:35:38;29.10;76.90
21197;DHT22;10756;51.014;3.786;2022-07-06T13:38:30;28.30;78.30
21197;DHT22;10756;51.014;3.786;2022-07-06T13:41:01;28.10;80.40
21197;DHT22;10756;51.014;3.786;2022-07-06T13:43:48;28.50;82.70
21197;DHT22;10756;51.014;3.786;2022-07-06T13:56:26;30.70;77.70
21197;DHT22;10756;51.014;3.786;2022-07-06T13:58:55;30.00;78.80
21197;DHT22;10756;51.014;3.786;2022-07-06T14:01:24;29.00;80.70
21197;DHT22;10756;51.014;3.786;2022-07-06T14:03:53;29.30;80.80
21197;DHT22;10756;51.014;3.786;2022-07-06T14:06:19;29.40;80.50
21197;DHT22;10756;51.014;3.786;2022-07-06T14:08:48;29.50;80.30
21197;DHT22;10756;51.014;3.786;2022-07-06T14:11:14;30.60;78.50
21197;DHT22;10756;51.014;3.786;2022-07-06T14:14:08;30.50;78.90
21197;DHT22;10756;51.014;3.786;2022-07-06T14:16:38;30.40;79.90
21197;DHT22;10756;51.014;3.786;2022-07-06T14:19:06;31.00;77.10
21197;DHT22;10756;51.014;3.786;2022-07-06T14:22:07;31.10;77.50
21197;DHT22;10756;51.014;3.786;2022-07-06T14:28:01;28.10;82.90
21197;DHT22;10756;51.014;3.786;2022-07-06T14:30:27;27.80;84.20
21197;DHT22;10756;51.014;3.786;2022-07-06T14:33:06;27.60;85.50
21197;DHT22;10756;51.014;3.786;2022-07-06T14:35:49;27.10;87.40
21197;DHT22;10756;51.014;3.786;2022-07-06T14:38:18;26.80;88.10
21197;DHT22;10756;51.014;3.786;2022-07-06T14:41:08;26.50;90.00
21197;DHT22;10756;51.014;3.786;2022-07-06T14:44:10;26.00;90.60
21197;DHT22;10756;51.014;3.786;2022-07-06T14:46:58;25.50;91.80
21197;DHT22;10756;51.014;3.786;2022-07-06T14:49:36;25.40;92.60
21197;DHT22;10756;51.014;3.786;2022-07-06T14:52:34;25.20;93.10
21197;DHT22;10756;51.014;3.786;2022-07-06T14:54:59;24.90;94.60
21197;DHT22;10756;51.014;3.786;2022-07-06T14:57:46;24.80;95.40
21197;DHT22;10756;51.014;3.786;2022-07-06T15:00:13;24.80;95.90
21197;DHT22;10756;51.014;3.786;2022-07-06T15:02:56;24.70;97.10
21197;DHT22;10756;51.014;3.786;2022-07-06T15:05:25;24.90;97.20
21197;DHT22;10756;51.014;3.786;2022-07-06T15:07:53;24.90;97.70
21197;DHT22;10756;51.014;3.786;2022-07-06T15:10:19;24.80;98.50
21197;DHT22;10756;51.014;3.786;2022-07-06T15:13:03;24.90;98.90
21197;DHT22;10756;51.014;3.786;2022-07-06T15:15:33;25.10;98.40
21197;DHT22;10756;51.014;3.786;2022-07-06T15:17:59;25.30;98.80
21197;DHT22;10756;51.014;3.786;2022-07-06T15:20:24;25.90;98.70
21197;DHT22;10756;51.014;3.786;2022-07-06T15:22:53;26.40;98.10
21197;DHT22;10756;51.014;3.786;2022-07-06T15:25:19;26.80;96.70
21197;DHT22;10756;51.014;3.786;2022-07-06T15:27:54;26.40;96.80
21197;DHT22;10756;51.014;3.786;2022-07-06T15:30:23;26.20;97.10
21197;DHT22;10756;51.014;3.786;2022-07-06T15:33:03;26.20;97.40
21197;DHT22;10756;51.014;3.786;2022-07-06T15:35:29;27.20;97.10
21197;DHT22;10756;51.014;3.786;2022-07-06T15:38:01;27.70;95.60
21197;DHT22;10756;51.014;3.786;2022-07-06T15:40:26;28.00;95.70
21197;DHT22;10756;51.014;3.786;2022-07-06T15:42:55;28.50;94.40
21197;DHT22;10756;51.014;3.786;2022-07-06T15:45:23;28.50;93.00
21197;DHT22;10756;51.014;3.786;2022-07-06T15:47:51;29.10;91.10
21197;DHT22;10756;51.014;3.786;2022-07-06T15:50:19;29.50;90.00
21197;DHT22;10756;51.014;3.786;2022-07-06T15:52:46;29.70;89.00
21197;DHT22;10756;51.014;3.786;2022-07-06T15:55:12;30.60;86.90
21197;DHT22;10756;51.014;3.786;2022-07-06T15:57:38;31.30;84.20
21197;DHT22;10756;51.014;3.786;2022-07-06T16:00:04;31.90;82.80
21197;DHT22;10756;51.014;3.786;2022-07-06T16:02:30;33.00;78.90
21197;DHT22;10756;51.014;3.786;2022-07-06T16:04:56;33.40;77.10
21197;DHT22;10756;51.014;3.786;2022-07-06T16:07:21;33.60;77.00
21197;DHT22;10756;51.014;3.786;2022-07-06T16:09:47;33.40;74.70
21197;DHT22;10756;51.014;3.786;2022-07-06T16:12:13;32.20;75.70
21197;DHT22;10756;51.014;3.786;2022-07-06T16:14:38;31.80;76.20
21197;DHT22;10756;51.014;3.786;2022-07-06T16:17:04;31.60;77.80
21197;DHT22;10756;51.014;3.786;2022-07-06T16:19:29;33.30;74.50
21197;DHT22;10756;51.014;3.786;2022-07-06T16:21:55;33.60;72.60
21197;DHT22;10756;51.014;3.786;2022-07-06T16:24:30;33.20;73.20
21197;DHT22;10756;51.014;3.786;2022-07-06T16:26:58;33.00;72.50
21197;DHT22;10756;51.014;3.786;2022-07-06T16:29:33;31.40;74.10
21197;DHT22;10756;51.014;3.786;2022-07-06T16:31:59;31.40;74.60
21197;DHT22;10756;51.014;3.786;2022-07-06T16:34:27;31.40;73.80
21197;DHT22;10756;51.014;3.786;2022-07-06T16:36:53;30.30;73.90
21197;DHT22;10756;51.014;3.786;2022-07-06T16:39:18;29.30;76.10
21197;DHT22;10756;51.014;3.786;2022-07-06T16:41:44;28.80;77.10
21197;DHT22;10756;51.014;3.786;2022-07-06T16:44:10;27.80;79.80
21197;DHT22;10756;51.014;3.786;2022-07-06T16:46:35;28.00;82.30
21197;DHT22;10756;51.014;3.786;2022-07-06T16:49:01;27.90;83.40
21197;DHT22;10756;51.014;3.786;2022-07-06T16:51:26;27.50;85.70
21197;DHT22;10756;51.014;3.786;2022-07-06T16:53:52;27.70;85.00
21197;DHT22;10756;51.014;3.786;2022-07-06T16:56:19;27.10;87.40
21197;DHT22;10756;51.014;3.786;2022-07-06T16:58:44;27.00;90.00
21197;DHT22;10756;51.014;3.786;2022-07-06T17:01:10;26.30;91.40
21197;DHT22;10756;51.014;3.786;2022-07-06T17:03:45;26.00;92.20
21197;DHT22;10756;51.014;3.786;2022-07-06T17:06:11;25.90;93.30
21197;DHT22;10756;51.014;3.786;2022-07-06T17:08:43;26.10;93.40
21197;DHT22;10756;51.014;3.786;2022-07-06T17:11:09;25.80;94.20
21197;DHT22;10756;51.014;3.786;2022-07-06T17:13:34;25.80;94.80
21197;DHT22;10756;51.014;3.786;2022-07-06T17:16:00;25.90;95.70
21197;DHT22;10756;51.014;3.786;2022-07-06T17:18:37;26.00;95.90
21197;DHT22;10756;51.014;3.786;2022-07-06T17:21:03;26.00;96.60
21197;DHT22;10756;51.014;3.786;2022-07-06T17:23:29;26.10;97.10
21197;DHT22;10756;51.014;3.786;2022-07-06T17:25:55;26.40;97.10
21197;DHT22;10756;51.014;3.786;2022-07-06T17:28:22;26.10;97.80
21197;DHT22;10756;51.014;3.786;2022-07-06T17:30:51;25.40;99.00
21197;DHT22;10756;51.014;3.786;2022-07-06T17:33:38;25.20;99.90
21197;DHT22;10756;51.014;3.786;2022-07-06T17:36:12;25.10;99.90
21197;DHT22;10756;51.014;3.786;2022-07-06T17:38:38;24.90;99.90
21197;DHT22;10756;51.014;3.786;2022-07-06T17:41:03;25.00;99.90
21197;DHT22;10756;51.014;3.786;2022-07-06T17:43:29;24.90;99.90
21197;DHT22;10756;51.014;3.786;2022-07-06T17:45:58;24.60;99.90
21197;DHT22;10756;51.014;3.786;2022-07-06T17:48:23;24.10;99.90
21197;DHT22;10756;51.014;3.786;2022-07-06T17:50:49;24.20;99.90
21197;DHT22;10756;51.014;3.786;2022-07-06T17:53:24;24.10;99.90
21197;DHT22;10756;51.014;3.786;2022-07-06T17:55:50;24.00;99.90
21197;DHT22;10756;51.014;3.786;2022-07-06T17:58:19;24.00;99.90
21197;DHT22;10756;51.014;3.786;2022-07-06T18:00:45;24.30;99.90